Time;durP1;ratioP1;P1;durP2;ratioP2;P2;SDS_P1;SDS_P2;PMS_P1;PMS_P2;Temp;Humidity;BMP_temperature;BMP_pressure;BME280_temperature;BME280_humidity;BME280_pressure;Samples;Min_cycle;Max_cycle;Signal;HPM_P1;HPM_P2
2024/01/11 00:00:53;;;;;;;39.23;22.03;;;-2.30;99.90;;;;;;5014378;28;20199;-55
2024/01/11 00:03:20;;;;;;;38.77;22.73;;;-2.30;99.90;;;;;;5021960;28;20210;-56
2024/01/11 00:05:47;;;;;;;36.43;21.60;;;-2.40;99.90;;;;;;5024422;28;20722;-54
2024/01/11 00:08:13;;;;;;;34.93;21.07;;;-2.40;99.90;;;;;;5024951;28;20712;-55
2024/01/11 00:10:40;;;;;;;37.10;21.90;;;-2.50;99.90;;;;;;5023474;28;20706;-55
2024/01/11 00:13:07;;;;;;;36.50;21.80;;;-2.50;99.90;;;;;;5021735;28;20218;-55
2024/01/11 00:15:33;;;;;;;35.37;21.80;;;-2.50;99.90;;;;;;5022606;28;20211;-55
2024/01/11 00:18:02;;;;;;;35.27;21.50;;;-2.50;99.90;;;;;;5024900;28;20225;-55
2024/01/11 00:20:28;;;;;;;37.40;21.83;;;-2.50;99.90;;;;;;5024480;28;20214;-56
2024/01/11 00:22:55;;;;;;;33.70;21.83;;;-2.50;99.90;;;;;;5021459;28;20207;-56
2024/01/11 00:25:22;;;;;;;42.03;23.07;;;-2.50;99.90;;;;;;5021278;28;20673;-56
2024/01/11 00:27:48;;;;;;;36.73;21.43;;;-2.40;99.90;;;;;;5024419;28;20340;-56
2024/01/11 00:30:15;;;;;;;34.47;22.27;;;-2.40;99.90;;;;;;5024813;28;20205;-56
2024/01/11 00:32:42;;;;;;;34.90;21.53;;;-2.40;99.90;;;;;;5022538;28;20625;-56
2024/01/11 00:35:10;;;;;;;38.47;22.33;;;-2.40;99.90;;;;;;5021315;28;20206;-56
2024/01/11 00:37:37;;;;;;;36.97;20.87;;;-2.40;99.90;;;;;;5022768;28;20300;-56
2024/01/11 00:40:04;;;;;;;36.07;22.07;;;-2.50;99.90;;;;;;5024792;28;20206;-54
2024/01/11 00:42:31;;;;;;;32.73;20.63;;;-2.50;99.90;;;;;;5024023;28;20238;-55
2024/01/11 00:44:58;;;;;;;36.60;21.67;;;-2.50;99.90;;;;;;5020911;28;20205;-54
2024/01/11 00:47:24;;;;;;;36.50;21.67;;;-2.50;99.90;;;;;;5020871;28;20242;-54
2024/01/11 00:49:51;;;;;;;34.63;21.80;;;-2.40;99.90;;;;;;5024438;28;20210;-55
2024/01/11 00:52:19;;;;;;;38.10;22.00;;;-2.40;99.90;;;;;;5024467;28;20233;-54
2024/01/11 00:54:46;;;;;;;35.47;20.70;;;-2.40;99.90;;;;;;5021861;28;20233;-53
2024/01/11 00:57:12;;;;;;;38.97;21.53;;;-2.40;99.90;;;;;;5021063;28;20226;-56
2024/01/11 00:59:41;;;;;;;33.13;20.60;;;-2.50;99.90;;;;;;5022359;28;20211;-57
2024/01/11 01:02:07;;;;;;;39.00;21.43;;;-2.40;99.90;;;;;;5024182;28;20747;-55
2024/01/11 01:04:38;;;;;;;35.30;21.23;;;-2.40;99.90;;;;;;5023219;28;20209;-55
2024/01/11 01:07:05;;;;;;;38.80;21.57;;;-2.50;99.90;;;;;;5020873;28;20258;-54
2024/01/11 01:09:34;;;;;;;35.30;21.20;;;-2.50;99.90;;;;;;5021162;28;20223;-55
2024/01/11 01:12:01;;;;;;;32.30;20.33;;;-2.50;99.90;;;;;;5024171;28;20203;-55
2024/01/11 01:14:28;;;;;;;38.90;22.07;;;-2.50;99.90;;;;;;5023837;28;20224;-55
2024/01/11 01:16:55;;;;;;;36.93;21.70;;;-2.50;99.90;;;;;;5020597;28;20720;-55
2024/01/11 01:19:21;;;;;;;36.47;21.77;;;-2.50;99.90;;;;;;5020385;28;20275;-54
2024/01/11 01:21:48;;;;;;;37.80;22.50;;;-2.60;99.90;;;;;;5022476;28;20261;-55
2024/01/11 01:24:15;;;;;;;37.67;20.97;;;-2.70;99.90;;;;;;5023757;28;20616;-54
2024/01/11 01:26:43;;;;;;;38.50;21.27;;;-2.70;99.90;;;;;;5021844;28;20230;-55
2024/01/11 01:29:09;;;;;;;35.27;21.13;;;-2.70;99.90;;;;;;5020258;28;20223;-57
2024/01/11 01:31:37;;;;;;;34.07;21.20;;;-2.70;99.90;;;;;;5021868;28;20265;-55
2024/01/11 01:34:04;;;;;;;34.47;21.13;;;-2.80;99.90;;;;;;5024443;28;20198;-57
2024/01/11 01:36:31;;;;;;;31.57;20.00;;;-2.70;99.90;;;;;;5023578;28;20325;-54
2024/01/11 01:38:57;;;;;;;36.47;20.30;;;-2.70;99.90;;;;;;5020344;28;20230;-56
2024/01/11 01:41:24;;;;;;;39.90;22.70;;;-2.70;99.90;;;;;;5020404;28;20218;-55
2024/01/11 01:43:52;;;;;;;38.33;21.33;;;-2.60;99.90;;;;;;5023157;28;20210;-54
2024/01/11 01:46:24;;;;;;;37.40;21.87;;;-2.60;99.90;;;;;;5023723;28;20226;-55
2024/01/11 01:48:51;;;;;;;34.77;20.93;;;-2.60;99.90;;;;;;5020773;28;20219;-55
2024/01/11 01:51:18;;;;;;;35.87;21.80;;;-2.50;99.90;;;;;;5020168;28;20210;-55
2024/01/11 01:53:45;;;;;;;37.30;21.83;;;-2.50;99.90;;;;;;5021876;28;20203;-55
2024/01/11 01:56:12;;;;;;;37.10;22.83;;;-2.40;99.90;;;;;;5023104;28;20222;-55
2024/01/11 01:58:39;;;;;;;33.93;20.97;;;-2.40;99.90;;;;;;5022217;28;20202;-57
2024/01/11 02:01:07;;;;;;;38.63;21.43;;;-2.40;99.90;;;;;;5020151;28;20219;-55
2024/01/11 02:03:37;;;;;;;34.53;20.40;;;-2.40;99.90;;;;;;5020395;28;20706;-55
2024/01/11 02:06:06;;;;;;;37.80;21.73;;;-2.40;99.90;;;;;;5023381;28;20252;-55
2024/01/11 02:08:34;;;;;;;33.87;20.70;;;-2.40;99.90;;;;;;5022407;28;20229;-56
2024/01/11 02:11:01;;;;;;;35.43;20.87;;;-2.50;99.90;;;;;;5020014;28;20203;-55
2024/01/11 02:13:28;;;;;;;32.67;20.07;;;-2.60;99.90;;;;;;5019458;28;20229;-55
2024/01/11 02:15:55;;;;;;;35.57;20.47;;;-2.60;99.90;;;;;;5022809;28;20245;-56
2024/01/11 02:18:23;;;;;;;35.30;20.63;;;-2.60;99.90;;;;;;5023076;28;20227;-56
2024/01/11 02:20:49;;;;;;;35.87;21.13;;;-2.60;99.90;;;;;;5020258;28;20206;-56
2024/01/11 02:23:20;;;;;;;36.40;21.17;;;-2.70;99.90;;;;;;5019340;28;20203;-56
2024/01/11 02:25:48;;;;;;;35.97;21.13;;;-2.70;99.90;;;;;;5021491;28;20211;-55
2024/01/11 02:28:14;;;;;;;35.47;20.27;;;-2.70;99.90;;;;;;5022840;28;20205;-57
2024/01/11 02:30:42;;;;;;;36.23;20.67;;;-2.70;99.90;;;;;;5021200;28;20206;-54
2024/01/11 02:33:09;;;;;;;38.10;20.57;;;-2.70;99.90;;;;;;5018899;28;20207;-54
2024/01/11 02:35:38;;;;;;;34.93;20.57;;;-2.80;99.90;;;;;;5020505;28;20213;-55
2024/01/11 02:38:06;;;;;;;33.07;20.37;;;-2.90;99.90;;;;;;5022993;28;20229;-55
2024/01/11 02:40:33;;;;;;;34.60;20.07;;;-3.00;99.90;;;;;;5022566;28;20210;-55
2024/01/11 02:43:08;;;;;;;35.67;20.57;;;-3.00;99.90;;;;;;5019285;28;20207;-55
2024/01/11 02:45:35;;;;;;;36.00;20.90;;;-3.10;99.90;;;;;;5020021;28;20660;-55
2024/01/11 02:48:02;;;;;;;35.07;21.40;;;-3.00;99.90;;;;;;5022397;28;20240;-56
2024/01/11 02:50:28;;;;;;;34.87;21.23;;;-3.00;99.90;;;;;;5022596;28;20234;-54
2024/01/11 02:52:55;;;;;;;35.73;21.13;;;-3.00;99.90;;;;;;5019399;28;20233;-57
2024/01/11 02:55:22;;;;;;;35.23;20.07;;;-3.10;99.90;;;;;;5018922;28;20207;-55
2024/01/11 02:57:48;;;;;;;34.10;20.60;;;-3.10;99.90;;;;;;5021282;28;20230;-55
2024/01/11 03:00:16;;;;;;;37.80;20.97;;;-3.10;99.90;;;;;;5022602;28;20194;-56
2024/01/11 03:02:43;;;;;;;35.43;21.93;;;-3.10;99.90;;;;;;5020788;28;20280;-55
2024/01/11 03:05:10;;;;;;;37.03;20.53;;;-3.20;99.90;;;;;;5019168;28;20557;-56
2024/01/11 03:07:37;;;;;;;35.67;20.53;;;-3.20;99.90;;;;;;5019713;28;20276;-57
2024/01/11 03:10:04;;;;;;;34.97;21.17;;;-3.20;99.90;;;;;;5022270;28;20214;-55
2024/01/11 03:12:31;;;;;;;39.30;21.47;;;-3.10;99.90;;;;;;5022295;28;20210;-55
2024/01/11 03:14:57;;;;;;;38.37;20.60;;;-3.10;99.90;;;;;;5022133;28;20210;-55
2024/01/11 03:17:25;;;;;;;37.63;21.63;;;-3.10;99.90;;;;;;5022187;28;20222;-55
2024/01/11 03:19:52;;;;;;;35.30;21.63;;;-3.10;99.90;;;;;;5022557;28;20772;-55
2024/01/11 03:22:18;;;;;;;38.97;21.40;;;-3.20;99.90;;;;;;5022549;28;20211;-53
2024/01/11 03:24:45;;;;;;;36.60;20.33;;;-3.20;99.90;;;;;;5020287;28;20206;-54
2024/01/11 03:27:12;;;;;;;34.07;20.23;;;-3.20;99.90;;;;;;5018754;28;20723;-54
2024/01/11 03:29:38;;;;;;;35.40;21.20;;;-3.20;99.90;;;;;;5019367;28;20219;-55
2024/01/11 03:32:06;;;;;;;37.50;21.20;;;-3.20;99.90;;;;;;5022167;28;20215;-55
2024/01/11 03:34:34;;;;;;;36.53;21.27;;;-3.20;99.90;;;;;;5021957;28;20251;-54
2024/01/11 03:37:01;;;;;;;34.80;21.07;;;-3.30;99.90;;;;;;5018740;28;20676;-53
2024/01/11 03:39:27;;;;;;;36.10;20.93;;;-3.20;99.90;;;;;;5019216;28;20207;-55
2024/01/11 03:41:54;;;;;;;33.70;19.27;;;-3.20;99.90;;;;;;5021626;28;20225;-55
2024/01/11 03:44:20;;;;;;;33.87;20.27;;;-3.20;99.90;;;;;;5024061;28;20205;-53
2024/01/11 03:46:47;;;;;;;33.43;19.87;;;-3.20;99.90;;;;;;5039331;22;20239;-63
2024/01/11 03:49:14;;;;;;;35.53;20.10;;;-3.20;99.90;;;;;;5033939;28;20249;-61
2024/01/11 03:51:42;;;;;;;38.13;22.27;;;-3.20;99.90;;;;;;5033980;28;20753;-61
2024/01/11 03:54:08;;;;;;;34.50;20.90;;;-3.30;99.90;;;;;;5033937;28;20276;-61
2024/01/11 03:56:38;;;;;;;35.70;20.87;;;-3.40;99.90;;;;;;5033477;28;20227;-60
2024/01/11 03:59:05;;;;;;;36.70;19.87;;;-3.50;99.90;;;;;;5022147;28;20206;-61
2024/01/11 04:01:32;;;;;;;35.20;20.53;;;-3.50;99.90;;;;;;5022330;28;20214;-61
2024/01/11 04:03:59;;;;;;;36.10;20.63;;;-3.50;99.90;;;;;;5022203;28;20218;-61
2024/01/11 04:06:25;;;;;;;34.90;20.50;;;-3.50;99.90;;;;;;5029590;28;20234;-61
2024/01/11 04:08:54;;;;;;;35.17;20.00;;;-3.00;99.90;;;;;;5022925;28;20229;-61
2024/01/11 04:11:21;;;;;;;35.40;20.90;;;-3.40;99.90;;;;;;5020444;28;20212;-61
2024/01/11 04:13:48;;;;;;;33.57;19.50;;;-3.40;99.90;;;;;;5023198;28;20213;-61
2024/01/11 04:16:15;;;;;;;37.10;20.27;;;-3.40;99.90;;;;;;5021921;28;20257;-62
2024/01/11 04:18:42;;;;;;;36.73;20.13;;;-3.50;99.90;;;;;;5023161;28;20233;-61
2024/01/11 04:21:08;;;;;;;34.90;19.80;;;-3.50;99.90;;;;;;5025310;28;20213;-61
2024/01/11 04:23:35;;;;;;;34.77;21.10;;;-3.50;99.90;;;;;;5024824;28;20214;-61
2024/01/11 04:26:03;;;;;;;38.10;21.30;;;-3.50;99.90;;;;;;5021653;28;20627;-59
2024/01/11 04:28:30;;;;;;;37.83;22.20;;;-3.50;99.90;;;;;;5022058;28;20202;-60
2024/01/11 04:30:57;;;;;;;38.80;20.03;;;-3.50;99.90;;;;;;5025056;28;20324;-61
2024/01/11 04:33:24;;;;;;;36.00;22.00;;;-3.50;99.90;;;;;;5024999;28;20203;-62
2024/01/11 04:35:50;;;;;;;36.20;20.70;;;-3.40;99.90;;;;;;5022678;28;20206;-60
2024/01/11 04:38:17;;;;;;;34.33;20.83;;;-3.40;99.90;;;;;;5021520;28;20222;-61
2024/01/11 04:40:43;;;;;;;36.90;21.40;;;-3.30;99.90;;;;;;5022633;28;20207;-61
2024/01/11 04:43:12;;;;;;;35.03;20.57;;;-3.30;99.90;;;;;;5024581;28;20635;-61
2024/01/11 04:45:38;;;;;;;40.23;20.40;;;-3.20;99.90;;;;;;5024277;28;20206;-60
2024/01/11 04:48:06;;;;;;;38.23;20.53;;;-3.20;99.90;;;;;;5021311;28;20223;-61
2024/01/11 04:50:32;;;;;;;32.23;20.20;;;-3.30;99.90;;;;;;5021377;28;20315;-61
2024/01/11 04:52:59;;;;;;;32.90;20.43;;;-3.30;99.90;;;;;;5024491;28;20206;-61
2024/01/11 04:55:26;;;;;;;36.77;20.63;;;-3.30;99.90;;;;;;5024024;28;20214;-61
2024/01/11 04:57:52;;;;;;;36.93;21.60;;;-3.40;99.90;;;;;;5022007;28;20655;-63
2024/01/11 05:00:21;;;;;;;37.47;21.67;;;-3.40;99.90;;;;;;5021685;28;20203;-61
2024/01/11 05:02:47;;;;;;;39.10;21.63;;;-3.50;99.90;;;;;;5022762;28;20214;-61
2024/01/11 05:05:14;;;;;;;37.17;22.10;;;-3.50;99.90;;;;;;5024234;28;20206;-61
2024/01/11 05:07:41;;;;;;;36.97;21.90;;;-3.40;99.90;;;;;;5023402;28;20229;-61
2024/01/11 05:10:08;;;;;;;35.90;21.97;;;-3.40;99.90;;;;;;5020704;28;20273;-61
2024/01/11 05:12:36;;;;;;;36.73;20.43;;;-3.50;99.90;;;;;;5020970;28;20206;-61
2024/01/11 05:15:03;;;;;;;39.60;21.57;;;-3.50;99.90;;;;;;5024098;28;20202;-61
2024/01/11 05:17:31;;;;;;;35.57;20.67;;;-3.50;99.90;;;;;;5024278;28;20313;-61
2024/01/11 05:19:58;;;;;;;34.87;20.07;;;-3.50;99.90;;;;;;5021197;28;20206;-61
2024/01/11 05:22:24;;;;;;;36.47;20.50;;;-3.60;99.90;;;;;;5020527;28;20211;-62
2024/01/11 05:24:51;;;;;;;36.33;20.93;;;-3.60;99.90;;;;;;5022410;28;20217;-61
2024/01/11 05:27:18;;;;;;;34.83;20.67;;;-3.60;99.90;;;;;;5024132;28;20222;-61
2024/01/11 05:29:44;;;;;;;35.60;21.07;;;-3.60;99.90;;;;;;5022759;28;20233;-61
2024/01/11 05:32:11;;;;;;;33.90;20.57;;;-3.60;99.90;;;;;;5020428;28;20623;-61
2024/01/11 05:34:39;;;;;;;36.67;20.17;;;-3.60;99.90;;;;;;5020328;28;20257;-61
2024/01/11 05:37:06;;;;;;;36.93;20.63;;;-3.60;99.90;;;;;;5023555;28;20218;-61
2024/01/11 05:39:32;;;;;;;39.63;21.97;;;-3.60;99.90;;;;;;5023910;28;20210;-61
2024/01/11 05:41:59;;;;;;;36.57;22.40;;;-3.50;99.90;;;;;;5020551;28;20202;-61
2024/01/11 05:44:26;;;;;;;37.20;21.97;;;-3.40;99.90;;;;;;5020079;28;20209;-61
2024/01/11 05:46:52;;;;;;;34.63;20.97;;;-3.40;99.90;;;;;;5022506;28;20258;-62
2024/01/11 05:49:19;;;;;;;33.40;20.83;;;-3.30;99.90;;;;;;5023248;28;20202;-61
2024/01/11 05:51:47;;;;;;;34.63;20.70;;;-3.20;99.90;;;;;;5022358;28;20221;-61
2024/01/11 05:54:14;;;;;;;36.13;21.33;;;-3.20;99.90;;;;;;5019953;28;20621;-62
2024/01/11 05:56:41;;;;;;;34.23;20.77;;;-3.20;99.90;;;;;;5020367;28;20306;-62
2024/01/11 05:59:07;;;;;;;35.57;21.10;;;-3.10;99.90;;;;;;5023436;28;20260;-62
2024/01/11 06:01:34;;;;;;;36.23;21.17;;;-3.10;99.90;;;;;;5023462;28;20213;-61
2024/01/11 06:04:01;;;;;;;35.60;21.53;;;-3.20;99.90;;;;;;5019978;28;20569;-61
2024/01/11 06:06:27;;;;;;;40.27;23.10;;;-3.20;99.90;;;;;;5019266;28;20780;-62
2024/01/11 06:08:55;;;;;;;38.97;22.77;;;-3.20;99.90;;;;;;5022220;28;20214;-62
2024/01/11 06:11:22;;;;;;;39.53;22.40;;;-3.20;99.90;;;;;;5023203;28;20222;-61
2024/01/11 06:13:49;;;;;;;37.37;22.90;;;-3.20;99.90;;;;;;5021329;28;20272;-61
2024/01/11 06:16:16;;;;;;;40.30;23.13;;;-3.20;99.90;;;;;;5019708;28;20581;-62
2024/01/11 06:18:42;;;;;;;38.53;21.70;;;-3.20;99.90;;;;;;5020519;28;20218;-62
2024/01/11 06:21:09;;;;;;;40.80;22.60;;;-3.20;99.90;;;;;;5023307;28;20209;-61
2024/01/11 06:23:36;;;;;;;38.87;23.10;;;-3.30;99.90;;;;;;5023935;28;20285;-62
2024/01/11 06:26:04;;;;;;;40.30;22.30;;;-3.30;99.90;;;;;;5019765;28;20230;-61
2024/01/11 06:28:31;;;;;;;37.80;22.47;;;-3.30;99.90;;;;;;5019771;28;20685;-61
2024/01/11 06:30:57;;;;;;;37.47;22.33;;;-3.30;99.90;;;;;;5022219;28;20252;-62
2024/01/11 06:33:24;;;;;;;38.73;22.00;;;-3.30;99.90;;;;;;5022826;28;20211;-62
2024/01/11 06:35:51;;;;;;;42.37;22.53;;;-3.40;99.90;;;;;;5021168;28;20212;-61
2024/01/11 06:38:17;;;;;;;35.47;20.97;;;-3.30;99.90;;;;;;5019583;28;20655;-62
2024/01/11 06:40:44;;;;;;;41.97;22.27;;;-3.30;99.90;;;;;;5020081;28;20310;-62
2024/01/11 06:43:12;;;;;;;35.07;20.50;;;-3.40;99.90;;;;;;5022811;28;20206;-61
2024/01/11 06:45:39;;;;;;;37.80;22.53;;;-3.30;99.90;;;;;;5022634;28;20206;-61
2024/01/11 06:48:07;;;;;;;37.07;21.50;;;-3.40;99.90;;;;;;5019305;28;20333;-61
2024/01/11 06:50:33;;;;;;;40.10;22.47;;;-3.40;99.90;;;;;;5019519;28;20257;-63
2024/01/11 06:53:00;;;;;;;37.67;21.87;;;-3.50;99.90;;;;;;5022283;28;20214;-62
2024/01/11 06:55:27;;;;;;;38.80;21.57;;;-3.50;99.90;;;;;;5022577;28;20214;-61
2024/01/11 06:57:54;;;;;;;34.23;20.67;;;-3.40;99.90;;;;;;5020476;28;20238;-62
2024/01/11 07:00:22;;;;;;;31.80;19.60;;;-3.40;99.90;;;;;;5019341;28;20238;-62
2024/01/11 07:02:49;;;;;;;38.07;21.53;;;-3.40;99.90;;;;;;5020669;28;20746;-61
2024/01/11 07:05:16;;;;;;;37.93;21.97;;;-3.40;99.90;;;;;;5022742;28;20584;-61
2024/01/11 07:07:43;;;;;;;35.97;20.73;;;-3.50;99.90;;;;;;5022138;28;20233;-61
2024/01/11 07:10:10;;;;;;;35.63;20.83;;;-3.50;99.90;;;;;;5019224;28;20223;-61
2024/01/11 07:12:37;;;;;;;39.17;22.07;;;-3.50;99.90;;;;;;5019359;28;20290;-61
2024/01/11 07:15:05;;;;;;;41.43;22.60;;;-3.50;99.90;;;;;;5010904;28;20217;-61
2024/01/11 07:17:33;;;;;;;36.10;21.23;;;-3.50;99.90;;;;;;5019249;28;20313;-61
2024/01/11 07:20:00;;;;;;;39.30;21.20;;;-3.40;99.90;;;;;;5025295;28;20206;-61
2024/01/11 07:22:27;;;;;;;36.03;21.50;;;-3.40;99.90;;;;;;5026371;28;20234;-61
2024/01/11 07:24:53;;;;;;;34.93;21.37;;;-3.40;99.90;;;;;;5023886;28;20210;-61
2024/01/11 07:27:20;;;;;;;37.97;21.60;;;-3.30;99.90;;;;;;5022831;28;20317;-62
2024/01/11 07:29:47;;;;;;;39.03;21.53;;;-3.30;99.90;;;;;;5023647;28;20575;-61
2024/01/11 07:32:14;;;;;;;38.60;20.83;;;-3.30;99.90;;;;;;5026269;28;20230;-60
2024/01/11 07:34:42;;;;;;;36.33;20.33;;;-3.20;99.90;;;;;;5025825;28;20206;-61
2024/01/11 07:37:08;;;;;;;35.40;20.37;;;-3.10;99.90;;;;;;5022704;28;20223;-61
2024/01/11 07:39:36;;;;;;;34.30;20.33;;;-3.10;99.90;;;;;;5022759;28;20234;-61
2024/01/11 07:42:03;;;;;;;35.00;19.40;;;-3.10;99.90;;;;;;5025502;28;20573;-61
2024/01/11 07:44:30;;;;;;;38.20;21.13;;;-3.00;99.90;;;;;;5025791;28;20241;-61
2024/01/11 07:46:57;;;;;;;35.67;20.73;;;-2.90;99.90;;;;;;5023357;28;20226;-61
2024/01/11 07:49:23;;;;;;;38.30;21.43;;;-2.80;99.90;;;;;;5022639;28;20207;-61
2024/01/11 07:51:51;;;;;;;37.63;21.43;;;-2.90;99.90;;;;;;5023562;28;20305;-61
2024/01/11 07:54:18;;;;;;;36.43;20.90;;;-3.20;99.90;;;;;;5025585;28;20202;-61
2024/01/11 07:56:45;;;;;;;35.20;21.47;;;-3.30;99.90;;;;;;5024898;28;20230;-61
2024/01/11 07:59:14;;;;;;;36.20;21.97;;;-3.20;99.90;;;;;;5022659;28;20203;-62
2024/01/11 08:01:40;;;;;;;31.50;19.93;;;-3.10;99.90;;;;;;5022799;28;20302;-61
2024/01/11 08:04:07;;;;;;;37.40;21.30;;;-2.90;99.90;;;;;;5014370;28;20688;-61
2024/01/11 08:06:34;;;;;;;36.93;21.23;;;-2.70;99.90;;;;;;5022091;28;20223;-61
2024/01/11 08:09:04;;;;;;;34.63;20.57;;;-2.50;99.90;;;;;;5024717;28;20203;-62
2024/01/11 08:11:31;;;;;;;39.57;21.50;;;-2.50;99.90;;;;;;5025464;28;20233;-61
2024/01/11 08:13:57;;;;;;;41.20;21.40;;;-2.30;99.90;;;;;;5022806;28;20270;-62
2024/01/11 08:16:24;;;;;;;38.70;21.60;;;-2.20;99.90;;;;;;5021823;28;20633;-61
2024/01/11 08:18:51;;;;;;;41.90;21.77;;;-2.00;99.90;;;;;;5023062;28;20215;-61
2024/01/11 08:21:19;;;;;;;39.17;22.13;;;-1.90;99.90;;;;;;5025307;28;20232;-62
2024/01/11 08:23:48;;;;;;;37.77;22.23;;;-1.80;99.90;;;;;;5024294;28;20220;-61
2024/01/11 08:26:18;;;;;;;38.93;22.80;;;-1.70;99.90;;;;;;5021654;28;20215;-61
2024/01/11 08:28:45;;;;;;;35.90;21.37;;;-1.80;99.90;;;;;;5021821;28;20669;-61
2024/01/11 08:31:12;;;;;;;36.67;21.47;;;-1.60;99.90;;;;;;5024800;28;20218;-61
2024/01/11 08:33:39;;;;;;;33.63;20.67;;;-1.50;99.90;;;;;;5024946;28;20209;-62
2024/01/11 08:36:06;;;;;;;36.70;22.07;;;-1.30;99.90;;;;;;5021422;28;20203;-62
2024/01/11 08:38:33;;;;;;;35.37;21.43;;;-1.20;99.90;;;;;;5022065;28;20207;-60
2024/01/11 08:41:00;;;;;;;35.40;21.70;;;-1.10;99.90;;;;;;5024117;28;20203;-61
2024/01/11 08:43:28;;;;;;;33.37;21.50;;;-1.00;99.90;;;;;;5024633;28;20241;-60
2024/01/11 08:45:55;;;;;;;34.53;20.73;;;-1.10;99.90;;;;;;5022879;28;20214;-60
2024/01/11 08:48:22;;;;;;;37.63;21.90;;;-1.00;99.90;;;;;;5021290;28;20747;-61
2024/01/11 08:50:48;;;;;;;35.30;22.50;;;-1.00;99.90;;;;;;5021899;28;20227;-61
2024/01/11 08:53:15;;;;;;;35.60;21.10;;;-0.90;99.90;;;;;;5024546;28;20276;-61
2024/01/11 08:55:42;;;;;;;37.87;22.83;;;-0.80;99.90;;;;;;5024689;28;20297;-58
2024/01/11 08:58:09;;;;;;;39.77;22.93;;;-0.70;99.90;;;;;;5021231;28;20226;-63
2024/01/11 09:00:37;;;;;;;41.30;22.57;;;-0.60;99.90;;;;;;5021092;28;20327;-61
2024/01/11 09:03:04;;;;;;;36.20;22.57;;;-0.60;99.90;;;;;;5023857;28;20289;-61
2024/01/11 09:05:31;;;;;;;35.63;21.67;;;-0.50;99.90;;;;;;5024609;28;20214;-60
2024/01/11 09:07:58;;;;;;;34.43;22.43;;;-0.30;99.90;;;;;;5021966;28;20245;-67
2024/01/11 09:10:25;;;;;;;39.47;23.10;;;-0.40;99.90;;;;;;5020942;28;20214;-64
2024/01/11 09:12:52;;;;;;;38.47;21.17;;;-0.60;99.90;;;;;;5022155;28;20211;-68
2024/01/11 09:15:19;;;;;;;36.20;21.57;;;-1.10;99.90;;;;;;5024214;28;20691;-61
2024/01/11 09:17:47;;;;;;;35.10;22.23;;;-1.40;99.90;;;;;;5023544;28;20233;-59
2024/01/11 09:20:14;;;;;;;34.17;21.30;;;-1.70;99.90;;;;;;5020879;28;20231;-60
2024/01/11 09:22:41;;;;;;;36.93;21.87;;;-1.70;99.90;;;;;;5020590;28;20598;-60
2024/01/11 09:25:08;;;;;;;39.93;21.70;;;-1.90;99.90;;;;;;5023728;28;20206;-60
2024/01/11 09:27:35;;;;;;;39.63;22.47;;;-1.90;99.90;;;;;;5024067;28;20612;-60
2024/01/11 09:30:02;;;;;;;34.47;22.20;;;-1.80;99.90;;;;;;5021372;28;20202;-60
2024/01/11 09:32:30;;;;;;;38.17;22.27;;;-1.60;99.90;;;;;;5020240;28;20346;-61
2024/01/11 09:34:58;;;;;;;40.47;23.70;;;-1.30;99.90;;;;;;5022216;28;20221;-61
2024/01/11 09:37:25;;;;;;;40.50;24.07;;;-0.90;99.90;;;;;;5024010;28;20233;-61
2024/01/11 09:39:53;;;;;;;38.60;24.20;;;-0.60;99.90;;;;;;5022446;28;20206;-60
2024/01/11 09:42:20;;;;;;;48.13;25.90;;;-0.30;99.90;;;;;;5019438;28;20203;-62
2024/01/11 09:44:47;;;;;;;38.57;23.70;;;0.10;99.90;;;;;;5020213;28;20432;-62
2024/01/11 09:47:16;;;;;;;36.03;23.70;;;0.10;99.90;;;;;;5023733;28;20743;-58
2024/01/11 09:49:45;;;;;;;42.33;24.40;;;0.20;99.90;;;;;;5023663;28;20289;-58
2024/01/11 09:52:16;;;;;;;34.23;22.47;;;0.40;99.90;;;;;;5012310;28;20712;-58
2024/01/11 09:54:43;;;;;;;38.73;22.87;;;0.60;99.90;;;;;;5019955;28;20211;-58
2024/01/11 09:57:10;;;;;;;35.90;22.63;;;0.70;99.90;;;;;;5011962;28;20222;-58
2024/01/11 09:59:38;;;;;;;37.37;22.90;;;0.90;99.90;;;;;;5020054;28;20218;-57
2024/01/11 10:02:08;;;;;;;36.73;24.00;;;0.90;99.90;;;;;;5022623;28;20206;-59
2024/01/11 10:04:33;;;;;;;36.03;23.77;;;1.00;99.90;;;;;;5023010;28;20202;-59
2024/01/11 10:07:02;;;;;;;37.03;22.47;;;1.00;99.90;;;;;;5020977;28;20226;-58
2024/01/11 10:09:30;;;;;;;34.27;22.37;;;1.10;99.90;;;;;;5019931;28;20218;-58
2024/01/11 10:11:57;;;;;;;35.30;23.03;;;1.20;99.90;;;;;;5021248;28;20354;-58
2024/01/11 10:14:24;;;;;;;39.17;22.63;;;1.30;99.90;;;;;;5023265;28;20217;-58
2024/01/11 10:16:50;;;;;;;38.20;23.07;;;1.40;99.90;;;;;;5022427;28;20234;-58
2024/01/11 10:19:18;;;;;;;35.53;22.07;;;1.50;99.90;;;;;;5019523;28;20253;-58
2024/01/11 10:21:45;;;;;;;35.27;22.03;;;1.50;99.90;;;;;;5019696;28;20206;-58
2024/01/11 10:24:18;;;;;;;40.50;23.07;;;1.50;99.90;;;;;;5022735;28;20206;-57
2024/01/11 10:26:46;;;;;;;30.67;21.23;;;1.30;99.90;;;;;;5022769;28;20245;-59
2024/01/11 10:29:13;;;;;;;35.70;21.93;;;1.40;99.90;;;;;;5019805;28;20210;-59
2024/01/11 10:31:41;;;;;;;44.20;26.47;;;1.40;99.90;;;;;;5019481;28;20281;-57
2024/01/11 10:34:08;;;;;;;35.30;23.63;;;1.20;99.90;;;;;;5022466;28;20298;-58
2024/01/11 10:36:34;;;;;;;32.27;21.10;;;1.20;99.90;;;;;;5022709;28;20715;-59
2024/01/11 10:39:04;;;;;;;36.10;22.20;;;1.30;99.90;;;;;;5020549;28;20209;-60
2024/01/11 10:41:38;;;;;;;32.33;21.90;;;1.50;99.90;;;;;;5019417;28;20234;-57
2024/01/11 10:44:10;;;;;;;32.67;21.33;;;1.50;99.90;;;;;;5022096;28;22343;-59
2024/01/11 10:46:37;;;;;;;28.87;20.30;;;1.40;99.90;;;;;;5022480;28;20712;-58
2024/01/11 10:49:06;;;;;;;35.17;20.83;;;1.50;99.90;;;;;;5020359;28;20207;-59
2024/01/11 10:51:33;;;;;;;34.93;21.67;;;1.70;99.90;;;;;;5019298;28;20739;-58
2024/01/11 10:54:01;;;;;;;36.30;22.77;;;1.90;99.90;;;;;;5018710;28;20218;-62
2024/01/11 10:56:29;;;;;;;41.20;23.63;;;2.10;99.90;;;;;;5026620;28;20229;-60
2024/01/11 10:58:57;;;;;;;35.37;22.77;;;2.30;99.90;;;;;;5025259;28;20217;-65
2024/01/11 11:01:26;;;;;;;33.17;22.90;;;1.90;99.90;;;;;;5023538;28;20260;-61
2024/01/11 11:03:55;;;;;;;35.70;22.33;;;1.60;99.90;;;;;;5028358;28;20213;-61
2024/01/11 11:06:24;;;;;;;34.97;22.93;;;1.50;99.90;;;;;;5023264;28;20298;-61
2024/01/11 11:08:53;;;;;;;34.87;22.40;;;1.50;99.90;;;;;;5023717;28;20211;-62
2024/01/11 11:11:21;;;;;;;34.13;21.77;;;1.50;99.90;;;;;;5026510;28;20214;-63
2024/01/11 11:13:49;;;;;;;38.80;22.40;;;1.40;99.90;;;;;;5025971;28;20213;-59
2024/01/11 11:16:16;;;;;;;37.80;21.83;;;1.40;99.90;;;;;;5022877;28;20233;-60
2024/01/11 11:18:44;;;;;;;32.97;22.60;;;1.80;99.90;;;;;;5022980;28;20611;-58
2024/01/11 11:21:12;;;;;;;36.90;22.57;;;2.00;99.90;;;;;;5026180;28;20202;-58
2024/01/11 11:23:39;;;;;;;38.43;24.20;;;2.20;99.90;;;;;;5026122;28;20236;-59
2024/01/11 11:26:07;;;;;;;37.23;23.13;;;2.40;99.90;;;;;;5023556;28;20297;-59
2024/01/11 11:28:36;;;;;;;34.47;22.90;;;2.20;99.90;;;;;;5022857;28;20206;-59
2024/01/11 11:31:03;;;;;;;35.57;22.00;;;2.30;99.90;;;;;;5024755;28;20328;-59
2024/01/11 11:33:31;;;;;;;35.77;23.53;;;2.60;99.90;;;;;;5026125;28;20206;-59
2024/01/11 11:35:59;;;;;;;33.90;22.33;;;2.90;99.90;;;;;;5024570;28;20262;-59
2024/01/11 11:38:28;;;;;;;32.73;22.57;;;3.20;99.90;;;;;;5022851;28;20238;-60
2024/01/11 11:40:57;;;;;;;39.33;24.10;;;3.40;99.90;;;;;;5023982;28;20207;-60
2024/01/11 11:43:24;;;;;;;38.43;24.63;;;3.60;99.90;;;;;;5025878;28;20214;-59
2024/01/11 11:45:52;;;;;;;41.57;25.57;;;3.70;99.90;;;;;;5025241;28;20207;-61
2024/01/11 11:48:54;;;;;;;35.63;22.97;;;3.90;99.90;;;;;;5022072;28;20691;-62
2024/01/11 11:51:23;;;;;;;30.80;20.63;;;4.10;99.90;;;;;;5015398;28;20223;-59
2024/01/11 11:53:51;;;;;;;39.73;26.93;;;4.30;99.90;;;;;;5022515;28;20681;-59
2024/01/11 11:56:19;;;;;;;33.40;22.83;;;4.20;99.90;;;;;;5025556;28;20405;-59
2024/01/11 11:58:47;;;;;;;36.00;21.33;;;4.10;99.90;;;;;;5026061;28;20252;-59
2024/01/11 12:01:17;;;;;;;35.37;22.83;;;4.00;99.90;;;;;;5025998;28;20205;-59
2024/01/11 12:03:48;;;;;;;33.17;22.17;;;3.90;99.90;;;;;;5025079;28;20213;-59
2024/01/11 12:06:16;;;;;;;37.33;22.43;;;3.90;99.90;;;;;;5025564;28;20210;-59
2024/01/11 12:08:45;;;;;;;34.40;22.20;;;4.00;99.90;;;;;;5026375;28;20667;-60
2024/01/11 12:11:15;;;;;;;32.47;22.00;;;4.10;99.90;;;;;;5022408;28;20226;-59
2024/01/11 12:13:44;;;;;;;34.70;22.10;;;4.00;99.90;;;;;;5022042;28;20735;-59
2024/01/11 12:16:11;;;;;;;34.07;23.17;;;4.10;99.90;;;;;;5024796;28;20278;-59
2024/01/11 12:18:37;;;;;;;32.63;22.13;;;4.30;99.90;;;;;;5025568;28;20210;-59
2024/01/11 12:21:05;;;;;;;34.20;21.53;;;4.40;99.90;;;;;;5022957;28;20210;-61
2024/01/11 12:23:33;;;;;;;32.13;21.57;;;4.50;99.90;;;;;;5021662;28;20203;-59
2024/01/11 12:26:02;;;;;;;39.70;23.47;;;4.60;99.90;;;;;;5023391;28;20290;-59
2024/01/11 12:28:29;;;;;;;34.00;22.03;;;4.50;99.90;;;;;;5025302;28;20320;-59